createdAt,value
2023-02-16T04:40:10.952Z,99.90
2023-02-16T04:50:46.637Z,99.90
2023-02-16T05:01:24.298Z,99.90
2023-02-16T05:12:18.253Z,99.90
2023-02-16T05:22:53.925Z,99.90
2023-02-16T05:33:29.244Z,99.90
2023-02-16T05:44:06.691Z,99.90
2023-02-16T05:54:42.371Z,99.90
2023-02-16T06:05:17.964Z,99.90
2023-02-16T06:15:55.946Z,99.90
2023-02-16T06:26:31.692Z,99.90
2023-02-16T06:37:07.404Z,99.90
2023-02-16T06:47:42.676Z,99.90
2023-02-16T06:58:18.047Z,99.90
2023-02-16T07:08:54.300Z,99.90
2023-02-16T07:19:33.237Z,99.90
2023-02-16T07:30:09.661Z,99.90
2023-02-16T07:40:45.420Z,99.90
2023-02-16T07:51:26.991Z,99.90
2023-02-16T08:02:03.092Z,99.90
2023-02-16T08:12:38.750Z,99.90
2023-02-16T08:23:14.092Z,99.90
2023-02-16T08:33:50.895Z,99.90
2023-02-16T08:44:28.821Z,99.90
2023-02-16T08:55:05.010Z,99.90
2023-02-16T09:05:40.508Z,99.90
2023-02-16T09:16:22.460Z,90.20
2023-02-16T09:26:58.314Z,61.50
2023-02-16T09:37:34.016Z,34.60
2023-02-16T09:48:33.851Z,19.20
2023-02-16T09:59:17.312Z,14.30
2023-02-16T10:09:56.060Z,6.60
2023-02-16T10:20:35.720Z,5.50
2023-02-16T10:31:34.226Z,7.00
2023-02-16T10:42:27.118Z,5.20
2023-02-16T10:53:10.780Z,15.50
2023-02-16T11:03:53.015Z,28.80
2023-02-16T11:14:31.037Z,31.40
2023-02-16T11:25:21.896Z,37.60
2023-02-16T11:35:57.457Z,37.10
2023-02-16T11:46:40.476Z,31.80
2023-02-16T11:57:24.772Z,31.10
2023-02-16T12:08:12.792Z,32.40
2023-02-16T12:19:11.154Z,29.00
2023-02-16T12:29:59.153Z,30.90
2023-02-16T12:41:01.265Z,38.70
2023-02-16T12:51:42.027Z,37.40
2023-02-16T13:02:33.292Z,40.50
2023-02-16T13:13:16.211Z,42.50
2023-02-16T13:24:00.949Z,43.10
2023-02-16T13:35:22.802Z,42.40
2023-02-16T13:46:00.332Z,45.70
2023-02-16T13:56:37.614Z,47.20
2023-02-16T14:07:21.417Z,50.40
2023-02-16T14:17:56.849Z,52.80
2023-02-16T14:28:32.162Z,53.10
2023-02-16T14:39:12.441Z,48.70
2023-02-16T14:50:11.435Z,50.10
2023-02-16T15:00:51.434Z,54.70
2023-02-16T15:12:00.124Z,64.40
2023-02-16T15:22:38.754Z,68.60
2023-02-16T15:33:42.974Z,74.20
2023-02-16T15:44:34.389Z,82.00
2023-02-16T15:55:12.134Z,81.90
2023-02-16T16:06:06.269Z,88.80
2023-02-16T16:16:43.687Z,92.70
2023-02-16T16:27:29.544Z,96.20
2023-02-16T16:38:07.643Z,96.50
2023-02-16T16:48:47.353Z,99.90
2023-02-16T16:59:22.662Z,99.90
2023-02-16T17:09:59.578Z,99.90
2023-02-16T17:20:35.225Z,99.90
2023-02-16T17:31:11.968Z,99.90
2023-02-16T17:41:47.714Z,99.90
2023-02-16T17:52:24.997Z,99.90
2023-02-16T18:03:00.683Z,99.90
2023-02-16T18:13:36.216Z,99.90
2023-02-16T18:24:12.027Z,99.90
2023-02-16T18:34:47.893Z,99.90
2023-02-16T18:45:24.242Z,99.90
2023-02-16T18:56:00.116Z,99.90
2023-02-16T19:06:35.918Z,99.90
2023-02-16T19:17:11.553Z,82.70
2023-02-16T19:27:47.969Z,48.40
2023-02-16T19:38:23.926Z,41.10
2023-02-16T19:48:59.776Z,37.90
2023-02-16T19:59:35.427Z,36.60
2023-02-16T20:10:11.234Z,34.90
2023-02-16T20:20:46.891Z,35.20
2023-02-16T20:31:29.213Z,34.50
2023-02-16T20:42:04.902Z,33.80
2023-02-16T20:52:41.228Z,32.90
2023-02-16T21:03:16.724Z,32.30
2023-02-16T21:13:52.820Z,33.60
2023-02-16T21:24:28.582Z,33.00
2023-02-16T21:35:04.514Z,32.60
2023-02-16T21:45:40.396Z,32.20
2023-02-16T21:56:41.834Z,32.40
2023-02-16T22:07:17.616Z,32.20
2023-02-16T22:17:53.479Z,30.60
2023-02-16T22:28:29.094Z,30.80
